Airfield :
LOGIN :

Register | Disclaimer

   EN    FR    IT 

 










Legend :    VFR   Marginal VFR   IFR   Intensive IFR   Very Intensive IFR
Visi :
Ceiling :
>= 8 km
>= 3000ft
5 to 8 km
1000 to 3000 ft
1500m to 5 km
500 to 1000 ft
800 to 1500m
200 to 500 ft
< 800m
< 200 ft
Symbols :   Thunderstorms  Fog  Heavy snow  Heavy precipitations  Wind > 20 kt
SIGMETs :     Misc.  Thunderstorms  Icing  Turbulence  Mountain Waves  Volcanic Ashes







- Airport Elevation : 330 ft
- IATA code : LVA
- Download approach charts


LFOV - Laval-Entrammes

CURRENT METAR :
  • 221400Z AUTO 20013KT 170V240 9999 OVC032 18/10 Q1019

EXPIRED METARs :
  • 221330Z AUTO 19015KT 160V220 9999 OVC038 17/10 Q1019
  • 221300Z AUTO 19011KT 160V220 9999 BKN042 OVC048 17/10 Q1020
  • 221230Z AUTO 19012KT 160V220 9999 OVC048 17/10 Q1020
  • 221200Z AUTO 19012KT CAVOK 17/10 Q1021
  • 221130Z AUTO 19008KT CAVOK 16/10 Q1021

TAF N/A
No reported NOTAMs for that airfield.
1 SIGMET reported for the Brest FIR (LFRR) :
 
Severe turbulence
LFRR SIGMET 2 VALID 221200/221600 LFPW
LFRR BREST FIR/UIR SEV TURB FCST WI N4745 W00445 - N4915 W00515 - N4930 W00400 - N4800 W00200 - N4745 W00445 SFC/FL060 MOV E 20KT INTSF=



MET'MAP, your aeronautical weather chart ! - Copyright ORBIFLY December 2007 - Disclaimer

ORBIFLY MET'MAP TEAM :

Programming & Development : Alexandra Zaïnal
Concept & Development : Baudouin d'Aumeries
Co-Development & Prog : Marc-Olivier Méhu
Technical & hardware support : Manuel Goepfert

Contact : metmap@orbifly.com




SOURCES & CREDITS :

   NOAA